PWSweather.com
Personal Weather Stations
Station Observations
KPAEXPOR2
Wellington Estates, Export, PA 15632

Wellington EstatesExport, PA 15632

Lat: 40.446, Lon: -79.592

Elevation: 1286

Station Type: PWS1000-TD

http://www.westmorelandweather.com

Latest ConditionsUpdated 6:45:02 PM EST Sunday, Nov 23, 2014
Currently Today's Max Today's Min Today's Average
Temperature 55.0°F12.8°C 65.1°F18.4°C 45.8°F7.7°C 53.7°F12.1°C
Dew Point 43.1°F6.2°C 52.6°F11.4°C 34.4°F1.3°C 41.8°F5.4°C
Winds 7.7 mph SE12.4 kmh SE 9.9 mph SE15.9 kmh SE - 5.6 mph 9.0 kmh
Wind Gusts 12.1 mph19.5 kmh 16.8 mph27.0 kmh - -
Humidity 64% 64% 64% 64%
Pressure 29.81 in1009.5 mb 30.12 in1020.0 mb 29.81 in1009.5 mb -
Hour Temp Dew Point Humidity Winds Wind Gusts Pressure Precip Precip Rate Daily Precip Total
06:45 PM 55.0°F12.8°C 43.1°F6.2°C 64% 7.7 mph SE12.4 kmh SE 12.1 mph19.5 kmh 29.81 in1009.5 mb 0.00 in0.0 mm 0.00 in/hr0.0 mm/hr 0.00 in0.0 mm
06:30 PM 55.0°F12.8°C 43.1°F6.2°C 64% 5.2 mph WSW8.4 kmh WSW 8.3 mph13.4 kmh 29.82 in1009.8 mb 0.00 in0.0 mm 0.00 in/hr0.0 mm/hr 0.00 in0.0 mm
06:15 PM 55.6°F13.1°C 43.6°F6.4°C 64% 6.5 mph SE10.5 kmh SE 10.7 mph17.2 kmh 29.84 in1010.5 mb 0.00 in0.0 mm 0.00 in/hr0.0 mm/hr 0.00 in0.0 mm
06:00 PM 56.3°F13.5°C 44.3°F6.8°C 64% 5.5 mph S8.9 kmh S 7.6 mph12.2 kmh 29.84 in1010.5 mb 0.00 in0.0 mm 0.00 in/hr0.0 mm/hr 0.00 in0.0 mm
05:45 PM 56.8°F13.8°C 44.8°F7.1°C 64% 8.3 mph SSE13.4 kmh SSE 14.5 mph23.3 kmh 29.85 in1010.8 mb 0.00 in0.0 mm 0.00 in/hr0.0 mm/hr 0.00 in0.0 mm
05:30 PM 57.2°F14.0°C 45.1°F7.3°C 64% 9.9 mph SE15.9 kmh SE 16.8 mph27.0 kmh 29.86 in1011.2 mb 0.00 in0.0 mm 0.00 in/hr0.0 mm/hr 0.00 in0.0 mm
05:15 PM 57.7°F14.3°C 45.6°F7.6°C 64% 7.1 mph S11.4 kmh S 11.4 mph18.3 kmh 29.86 in1011.2 mb 0.00 in0.0 mm 0.00 in/hr0.0 mm/hr 0.00 in0.0 mm
05:00 PM 58.4°F14.7°C 46.3°F7.9°C 64% 5.6 mph S9.0 kmh S 7.6 mph12.2 kmh 29.87 in1011.5 mb 0.00 in0.0 mm 0.00 in/hr0.0 mm/hr 0.00 in0.0 mm
04:45 PM 59.2°F15.1°C 47.0°F8.3°C 64% 6.9 mph SE11.1 kmh SE 13.6 mph21.9 kmh 29.87 in1011.5 mb 0.00 in0.0 mm 0.00 in/hr0.0 mm/hr 0.00 in0.0 mm
04:30 PM 60.1°F15.6°C 47.9°F8.8°C 64% 4.6 mph SSE7.4 kmh SSE 6.9 mph11.1 kmh 29.88 in1011.9 mb 0.00 in0.0 mm 0.00 in/hr0.0 mm/hr 0.00 in0.0 mm
04:15 PM 60.6°F15.9°C 48.4°F9.1°C 64% 6.9 mph SE11.1 kmh SE 9.8 mph15.8 kmh 29.89 in1012.2 mb 0.00 in0.0 mm 0.00 in/hr0.0 mm/hr 0.00 in0.0 mm
04:00 PM 61.3°F16.3°C 49.1°F9.5°C 64% 6.4 mph SE10.3 kmh SE 9.2 mph14.8 kmh 29.90 in1012.5 mb 0.00 in0.0 mm 0.00 in/hr0.0 mm/hr 0.00 in0.0 mm
03:45 PM 62.4°F16.9°C 50.1°F10.1°C 64% 7.8 mph SE12.6 kmh SE 11.4 mph18.3 kmh 29.91 in1012.9 mb 0.00 in0.0 mm 0.00 in/hr0.0 mm/hr 0.00 in0.0 mm
03:30 PM 63.5°F17.5°C 51.1°F10.6°C 64% 5.4 mph SE8.7 kmh SE 13.0 mph20.9 kmh 29.91 in1012.9 mb 0.00 in0.0 mm 0.00 in/hr0.0 mm/hr 0.00 in0.0 mm
03:15 PM 64.0°F17.8°C 51.6°F10.9°C 64% 4.0 mph SSE6.4 kmh SSE 6.9 mph11.1 kmh 29.91 in1012.9 mb 0.00 in0.0 mm 0.00 in/hr0.0 mm/hr 0.00 in0.0 mm
03:00 PM 64.2°F17.9°C 51.8°F11.0°C 64% 7.4 mph SSE11.9 kmh SSE 9.8 mph15.8 kmh 29.93 in1013.5 mb 0.00 in0.0 mm 0.00 in/hr0.0 mm/hr 0.00 in0.0 mm
02:45 PM 64.6°F18.1°C 52.1°F11.2°C 64% 6.5 mph SE10.5 kmh SE 8.3 mph13.4 kmh 29.93 in1013.5 mb 0.00 in0.0 mm 0.00 in/hr0.0 mm/hr 0.00 in0.0 mm
02:30 PM 64.2°F17.9°C 51.8°F11.0°C 64% 6.5 mph S10.5 kmh S 8.3 mph13.4 kmh 29.94 in1013.9 mb 0.00 in0.0 mm 0.00 in/hr0.0 mm/hr 0.00 in0.0 mm
02:15 PM 64.4°F18.0°C 52.0°F11.1°C 64% 7.4 mph S11.9 kmh S 13.0 mph20.9 kmh 29.95 in1014.2 mb 0.00 in0.0 mm 0.00 in/hr0.0 mm/hr 0.00 in0.0 mm
02:00 PM 64.0°F17.8°C 51.6°F10.9°C 64% 7.1 mph S11.4 kmh S 9.8 mph15.8 kmh 29.97 in1014.9 mb 0.00 in0.0 mm 0.00 in/hr0.0 mm/hr 0.00 in0.0 mm
01:45 PM 63.5°F17.5°C 51.1°F10.6°C 64% 7.6 mph S12.2 kmh S 12.1 mph19.5 kmh 29.98 in1015.2 mb 0.00 in0.0 mm 0.00 in/hr0.0 mm/hr 0.00 in0.0 mm
01:30 PM 63.7°F17.6°C 51.3°F10.7°C 64% 7.4 mph SSE11.9 kmh SSE 9.2 mph14.8 kmh 29.99 in1015.6 mb 0.00 in0.0 mm 0.00 in/hr0.0 mm/hr 0.00 in0.0 mm
01:15 PM 64.4°F18.0°C 52.0°F11.1°C 64% 5.9 mph S9.5 kmh S 9.2 mph14.8 kmh 29.99 in1015.6 mb 0.00 in0.0 mm 0.00 in/hr0.0 mm/hr 0.00 in0.0 mm
01:00 PM 64.4°F18.0°C 52.0°F11.1°C 64% 5.7 mph S9.2 kmh S 8.3 mph13.4 kmh 30.00 in1015.9 mb 0.00 in0.0 mm 0.00 in/hr0.0 mm/hr 0.00 in0.0 mm
12:45 PM 65.1°F18.4°C 52.6°F11.4°C 64% 5.0 mph SSE8.0 kmh SSE 7.6 mph12.2 kmh 30.00 in1015.9 mb 0.00 in0.0 mm 0.00 in/hr0.0 mm/hr 0.00 in0.0 mm
12:30 PM 63.5°F17.5°C 51.1°F10.6°C 64% 5.2 mph SSW8.4 kmh SSW 9.8 mph15.8 kmh 30.01 in1016.3 mb 0.00 in0.0 mm 0.00 in/hr0.0 mm/hr 0.00 in0.0 mm
12:15 PM 62.2°F16.8°C 49.9°F9.9°C 64% 5.0 mph SW8.0 kmh SW 9.8 mph15.8 kmh 30.01 in1016.3 mb 0.00 in0.0 mm 0.00 in/hr0.0 mm/hr 0.00 in0.0 mm
12:00 PM 61.1°F16.2°C 48.9°F9.4°C 64% 6.1 mph S9.8 kmh S 8.3 mph13.4 kmh 30.03 in1016.9 mb 0.00 in0.0 mm 0.00 in/hr0.0 mm/hr 0.00 in0.0 mm
11:45 AM 61.0°F16.1°C 48.7°F9.3°C 64% 5.5 mph S8.9 kmh S 7.6 mph12.2 kmh 30.04 in1017.3 mb 0.00 in0.0 mm 0.00 in/hr0.0 mm/hr 0.00 in0.0 mm
11:30 AM 60.4°F15.8°C 48.2°F9.0°C 64% 5.7 mph SSW9.2 kmh SSW 9.8 mph15.8 kmh 30.06 in1017.9 mb 0.00 in0.0 mm 0.00 in/hr0.0 mm/hr 0.00 in0.0 mm
11:15 AM 59.7°F15.4°C 47.5°F8.6°C 64% 7.7 mph S12.4 kmh S 11.4 mph18.3 kmh 30.06 in1017.9 mb 0.00 in0.0 mm 0.00 in/hr0.0 mm/hr 0.00 in0.0 mm
11:00 AM 59.0°F15.0°C 46.8°F8.2°C 64% 6.0 mph S9.7 kmh S 8.3 mph13.4 kmh 30.08 in1018.6 mb 0.00 in0.0 mm 0.00 in/hr0.0 mm/hr 0.00 in0.0 mm
10:45 AM 57.9°F14.4°C 45.8°F7.7°C 64% 6.2 mph S10.0 kmh S 11.4 mph18.3 kmh 30.09 in1019.0 mb 0.00 in0.0 mm 0.00 in/hr0.0 mm/hr 0.00 in0.0 mm
10:30 AM 55.6°F13.1°C 43.6°F6.4°C 64% 4.6 mph SW7.4 kmh SW 6.0 mph9.7 kmh 30.09 in1019.0 mb 0.00 in0.0 mm 0.00 in/hr0.0 mm/hr 0.00 in0.0 mm
10:15 AM 54.5°F12.5°C 42.6°F5.9°C 64% 5.0 mph WSW8.0 kmh WSW 7.6 mph12.2 kmh 30.10 in1019.3 mb 0.00 in0.0 mm 0.00 in/hr0.0 mm/hr 0.00 in0.0 mm
10:00 AM 53.8°F12.1°C 41.9°F5.5°C 64% 7.0 mph SSW11.3 kmh SSW 10.7 mph17.2 kmh 30.11 in1019.6 mb 0.00 in0.0 mm 0.00 in/hr0.0 mm/hr 0.00 in0.0 mm
09:45 AM 53.0°F11.7°C 41.2°F5.1°C 64% 5.7 mph SSE9.2 kmh SSE 8.3 mph13.4 kmh 30.11 in1019.6 mb 0.00 in0.0 mm 0.00 in/hr0.0 mm/hr 0.00 in0.0 mm
09:30 AM 52.7°F11.5°C 40.9°F4.9°C 64% 6.2 mph SSW10.0 kmh SSW 8.3 mph13.4 kmh 30.11 in1019.6 mb 0.00 in0.0 mm 0.00 in/hr0.0 mm/hr 0.00 in0.0 mm
09:15 AM 52.0°F11.1°C 40.2°F4.6°C 64% 5.7 mph S9.2 kmh S 9.2 mph14.8 kmh 30.11 in1019.6 mb 0.00 in0.0 mm 0.00 in/hr0.0 mm/hr 0.00 in0.0 mm
09:00 AM 51.1°F10.6°C 39.3°F4.1°C 64% 5.9 mph S9.5 kmh S 9.2 mph14.8 kmh 30.12 in1020.0 mb 0.00 in0.0 mm 0.00 in/hr0.0 mm/hr 0.00 in0.0 mm
08:45 AM 50.7°F10.4°C 39.0°F3.9°C 64% 5.5 mph S8.9 kmh S 8.3 mph13.4 kmh 30.11 in1019.6 mb 0.00 in0.0 mm 0.00 in/hr0.0 mm/hr 0.00 in0.0 mm
08:30 AM 49.8°F9.9°C 38.1°F3.4°C 64% 5.0 mph S8.0 kmh S 6.0 mph9.7 kmh 30.11 in1019.6 mb 0.00 in0.0 mm 0.00 in/hr0.0 mm/hr 0.00 in0.0 mm
08:15 AM 49.1°F9.5°C 37.4°F3.0°C 64% 4.1 mph SSW6.6 kmh SSW 7.6 mph12.2 kmh 30.11 in1019.6 mb 0.00 in0.0 mm 0.00 in/hr0.0 mm/hr 0.00 in0.0 mm
08:00 AM 48.5°F9.2°C 36.9°F2.7°C 64% 4.2 mph S6.8 kmh S 7.6 mph12.2 kmh 30.11 in1019.6 mb 0.00 in0.0 mm 0.00 in/hr0.0 mm/hr 0.00 in0.0 mm
07:45 AM 48.5°F9.2°C 36.9°F2.7°C 64% 4.9 mph S7.9 kmh S 7.6 mph12.2 kmh 30.11 in1019.6 mb 0.00 in0.0 mm 0.00 in/hr0.0 mm/hr 0.00 in0.0 mm
07:30 AM 48.5°F9.2°C 36.9°F2.7°C 64% 4.7 mph SSW7.6 kmh SSW 6.0 mph9.7 kmh 30.11 in1019.6 mb 0.00 in0.0 mm 0.00 in/hr0.0 mm/hr 0.00 in0.0 mm
07:15 AM 48.5°F9.2°C 36.9°F2.7°C 64% 3.8 mph S6.1 kmh S 6.0 mph9.7 kmh 30.11 in1019.6 mb 0.00 in0.0 mm 0.00 in/hr0.0 mm/hr 0.00 in0.0 mm
07:00 AM 48.5°F9.2°C 36.9°F2.7°C 64% 5.2 mph S8.4 kmh S 6.9 mph11.1 kmh 30.12 in1020.0 mb 0.00 in0.0 mm 0.00 in/hr0.0 mm/hr 0.00 in0.0 mm
06:45 AM 48.4°F9.1°C 36.8°F2.7°C 64% 4.7 mph SW7.6 kmh SW 6.9 mph11.1 kmh 30.12 in1020.0 mb 0.00 in0.0 mm 0.00 in/hr0.0 mm/hr 0.00 in0.0 mm
06:30 AM 47.6°F8.7°C 36.1°F2.3°C 64% 3.9 mph S6.3 kmh S 6.0 mph9.7 kmh 30.11 in1019.6 mb 0.00 in0.0 mm 0.00 in/hr0.0 mm/hr 0.00 in0.0 mm
06:15 AM 46.7°F8.2°C 35.2°F1.8°C 64% 3.8 mph S6.1 kmh S 6.0 mph9.7 kmh 30.11 in1019.6 mb 0.00 in0.0 mm 0.00 in/hr0.0 mm/hr 0.00 in0.0 mm
06:00 AM 45.8°F7.7°C 34.4°F1.3°C 64% 2.9 mph S4.7 kmh S 3.8 mph6.1 kmh 30.12 in1020.0 mb 0.00 in0.0 mm 0.00 in/hr0.0 mm/hr 0.00 in0.0 mm
05:45 AM 46.0°F7.8°C 34.5°F1.4°C 64% 2.1 mph S3.4 kmh S 3.8 mph6.1 kmh 30.12 in1020.0 mb 0.00 in0.0 mm 0.00 in/hr0.0 mm/hr 0.00 in0.0 mm
05:30 AM 46.0°F7.8°C 34.5°F1.4°C 64% 0.8 mph WNW1.3 kmh WNW 1.6 mph2.6 kmh 30.12 in1020.0 mb 0.00 in0.0 mm 0.00 in/hr0.0 mm/hr 0.00 in0.0 mm
05:15 AM 46.2°F7.9°C 34.7°F1.5°C 64% 3.3 mph S5.3 kmh S 5.4 mph8.7 kmh 30.12 in1020.0 mb 0.00 in0.0 mm 0.00 in/hr0.0 mm/hr 0.00 in0.0 mm
05:00 AM 46.4°F8.0°C 34.9°F1.6°C 64% 4.7 mph SW7.6 kmh SW 8.3 mph13.4 kmh 30.12 in1020.0 mb 0.00 in0.0 mm 0.00 in/hr0.0 mm/hr 0.00 in0.0 mm
04:45 AM 46.2°F7.9°C 34.7°F1.5°C 64% 4.4 mph SSW7.1 kmh SSW 6.9 mph11.1 kmh 30.11 in1019.6 mb 0.00 in0.0 mm 0.00 in/hr0.0 mm/hr 0.00 in0.0 mm
04:30 AM 45.8°F7.7°C 34.4°F1.3°C 64% 4.8 mph S7.7 kmh S 7.6 mph12.2 kmh 30.11 in1019.6 mb 0.00 in0.0 mm 0.00 in/hr0.0 mm/hr 0.00 in0.0 mm
04:15 AM 46.0°F7.8°C 34.5°F1.4°C 64% 4.7 mph SW7.6 kmh SW 6.0 mph9.7 kmh 30.11 in1019.6 mb 0.00 in0.0 mm 0.00 in/hr0.0 mm/hr 0.00 in0.0 mm
04:00 AM 46.2°F7.9°C 34.7°F1.5°C 64% 4.4 mph W7.1 kmh W 6.9 mph11.1 kmh 30.11 in1019.6 mb 0.00 in0.0 mm 0.00 in/hr0.0 mm/hr 0.00 in0.0 mm
03:45 AM 45.8°F7.7°C 34.4°F1.3°C 64% 4.3 mph SW6.9 kmh SW 6.0 mph9.7 kmh 30.12 in1020.0 mb 0.00 in0.0 mm 0.00 in/hr0.0 mm/hr 0.00 in0.0 mm
03:30 AM 45.8°F7.7°C 34.4°F1.3°C 64% 4.0 mph SW6.4 kmh SW 5.4 mph8.7 kmh 30.11 in1019.6 mb 0.00 in0.0 mm 0.00 in/hr0.0 mm/hr 0.00 in0.0 mm
03:15 AM 46.0°F7.8°C 34.5°F1.4°C 64% 4.9 mph SSW7.9 kmh SSW 7.6 mph12.2 kmh 30.11 in1019.6 mb 0.00 in0.0 mm 0.00 in/hr0.0 mm/hr 0.00 in0.0 mm
03:00 AM 46.2°F7.9°C 34.7°F1.5°C 64% 5.1 mph SSW8.2 kmh SSW 6.0 mph9.7 kmh 30.12 in1020.0 mb 0.00 in0.0 mm 0.00 in/hr0.0 mm/hr 0.00 in0.0 mm
02:45 AM 46.9°F8.3°C 35.4°F1.9°C 64% 5.3 mph WSW8.5 kmh WSW 7.6 mph12.2 kmh 30.12 in1020.0 mb 0.00 in0.0 mm 0.00 in/hr0.0 mm/hr 0.00 in0.0 mm
02:30 AM 46.9°F8.3°C 35.4°F1.9°C 64% 5.7 mph S9.2 kmh S 8.3 mph13.4 kmh 30.12 in1020.0 mb 0.00 in0.0 mm 0.00 in/hr0.0 mm/hr 0.00 in0.0 mm
02:15 AM 46.9°F8.3°C 35.4°F1.9°C 64% 7.0 mph SSW11.3 kmh SSW 8.3 mph13.4 kmh 30.11 in1019.6 mb 0.00 in0.0 mm 0.00 in/hr0.0 mm/hr 0.00 in0.0 mm
02:00 AM 47.1°F8.4°C 35.6°F2.0°C 64% 8.3 mph S13.4 kmh S 9.8 mph15.8 kmh 30.11 in1019.6 mb 0.00 in0.0 mm 0.00 in/hr0.0 mm/hr 0.00 in0.0 mm
01:45 AM 47.3°F8.5°C 35.7°F2.1°C 64% 7.6 mph S12.2 kmh S 14.5 mph23.3 kmh 30.12 in1020.0 mb 0.00 in0.0 mm 0.00 in/hr0.0 mm/hr 0.00 in0.0 mm
01:30 AM 47.3°F8.5°C 35.7°F2.1°C 64% 6.2 mph S10.0 kmh S 8.3 mph13.4 kmh 30.12 in1020.0 mb 0.00 in0.0 mm 0.00 in/hr0.0 mm/hr 0.00 in0.0 mm
01:15 AM 47.3°F8.5°C 35.7°F2.1°C 64% 6.8 mph SW10.9 kmh SW 9.8 mph15.8 kmh 30.12 in1020.0 mb 0.00 in0.0 mm 0.00 in/hr0.0 mm/hr 0.00 in0.0 mm
01:00 AM 47.3°F8.5°C 35.7°F2.1°C 64% 6.6 mph SSW10.6 kmh SSW 9.8 mph15.8 kmh 30.12 in1020.0 mb 0.00 in0.0 mm 0.00 in/hr0.0 mm/hr 0.00 in0.0 mm
12:45 AM 47.3°F8.5°C 35.7°F2.1°C 64% 7.6 mph SSW12.2 kmh SSW 12.1 mph19.5 kmh 30.12 in1020.0 mb 0.00 in0.0 mm 0.00 in/hr0.0 mm/hr 0.00 in0.0 mm
12:30 AM 47.1°F8.4°C 35.6°F2.0°C 64% 6.6 mph S10.6 kmh S 9.8 mph15.8 kmh 30.12 in1020.0 mb 0.00 in0.0 mm 0.00 in/hr0.0 mm/hr 0.00 in0.0 mm
12:15 AM 46.9°F8.3°C 35.4°F1.9°C 64% 4.9 mph SSW7.9 kmh SSW 8.3 mph13.4 kmh 30.11 in1019.6 mb 0.00 in0.0 mm 0.00 in/hr0.0 mm/hr 0.00 in0.0 mm
12:00 AM 46.6°F8.1°C 35.0°F1.7°C 64% 3.6 mph SSW5.8 kmh SSW 5.4 mph8.7 kmh 30.11 in1019.6 mb 0.00 in0.0 mm 0.00 in/hr0.0 mm/hr 0.00 in0.0 mm